sensor_id;sensor_type;location;lat;lon;timestamp;P1;durP1;ratioP1;P2;durP2;ratioP2
20468;SDS011;10393;52.460;13.322;2023-04-24T00:01:24;4.10;;;2.10;;
20468;SDS011;10393;52.460;13.322;2023-04-24T00:03:15;1.70;;;1.20;;
20468;SDS011;10393;52.460;13.322;2023-04-24T00:04:59;2.10;;;1.90;;
20468;SDS011;10393;52.460;13.322;2023-04-24T00:06:58;2.78;;;1.95;;
20468;SDS011;10393;52.460;13.322;2023-04-24T00:08:40;2.72;;;1.80;;
20468;SDS011;10393;52.460;13.322;2023-04-24T00:10:24;3.97;;;2.00;;
20468;SDS011;10393;52.460;13.322;2023-04-24T00:12:06;7.93;;;1.98;;
20468;SDS011;10393;52.460;13.322;2023-04-24T00:13:47;2.67;;;1.70;;
20468;SDS011;10393;52.460;13.322;2023-04-24T00:15:34;2.65;;;1.92;;
20468;SDS011;10393;52.460;13.322;2023-04-24T00:17:19;1.67;;;1.58;;
20468;SDS011;10393;52.460;13.322;2023-04-24T00:19:11;1.98;;;1.70;;
20468;SDS011;10393;52.460;13.322;2023-04-24T00:20:53;3.33;;;1.80;;
20468;SDS011;10393;52.460;13.322;2023-04-24T00:22:37;1.75;;;1.45;;
20468;SDS011;10393;52.460;13.322;2023-04-24T00:24:21;2.78;;;1.80;;
20468;SDS011;10393;52.460;13.322;2023-04-24T00:26:08;4.50;;;2.00;;
20468;SDS011;10393;52.460;13.322;2023-04-24T00:27:56;2.47;;;1.77;;
20468;SDS011;10393;52.460;13.322;2023-04-24T00:29:37;3.55;;;2.25;;
20468;SDS011;10393;52.460;13.322;2023-04-24T00:31:18;2.53;;;1.60;;
20468;SDS011;10393;52.460;13.322;2023-04-24T00:33:00;4.03;;;1.83;;
20468;SDS011;10393;52.460;13.322;2023-04-24T00:34:44;3.92;;;1.55;;
20468;SDS011;10393;52.460;13.322;2023-04-24T00:36:28;2.78;;;1.92;;
20468;SDS011;10393;52.460;13.322;2023-04-24T00:38:11;2.92;;;1.55;;
20468;SDS011;10393;52.460;13.322;2023-04-24T00:40:02;1.75;;;1.38;;
20468;SDS011;10393;52.460;13.322;2023-04-24T00:41:50;3.03;;;1.77;;
20468;SDS011;10393;52.460;13.322;2023-04-24T00:43:39;1.73;;;1.63;;
20468;SDS011;10393;52.460;13.322;2023-04-24T00:45:21;4.57;;;2.10;;
20468;SDS011;10393;52.460;13.322;2023-04-24T00:47:05;3.83;;;1.77;;
20468;SDS011;10393;52.460;13.322;2023-04-24T00:48:47;3.17;;;2.45;;
20468;SDS011;10393;52.460;13.322;2023-04-24T00:50:31;1.52;;;1.42;;
20468;SDS011;10393;52.460;13.322;2023-04-24T00:52:18;5.88;;;2.00;;
20468;SDS011;10393;52.460;13.322;2023-04-24T00:54:09;1.17;;;1.10;;
20468;SDS011;10393;52.460;13.322;2023-04-24T00:55:56;1.98;;;1.48;;
20468;SDS011;10393;52.460;13.322;2023-04-24T00:57:40;2.80;;;1.58;;
20468;SDS011;10393;52.460;13.322;2023-04-24T00:59:36;2.25;;;1.45;;
20468;SDS011;10393;52.460;13.322;2023-04-24T01:01:24;8.45;;;1.80;;
20468;SDS011;10393;52.460;13.322;2023-04-24T01:03:05;2.25;;;1.67;;
20468;SDS011;10393;52.460;13.322;2023-04-24T01:04:59;2.22;;;1.50;;
20468;SDS011;10393;52.460;13.322;2023-04-24T01:06:50;2.30;;;1.70;;
20468;SDS011;10393;52.460;13.322;2023-04-24T01:08:37;2.28;;;1.55;;
20468;SDS011;10393;52.460;13.322;2023-04-24T01:10:32;3.03;;;1.73;;
20468;SDS011;10393;52.460;13.322;2023-04-24T01:12:16;2.88;;;1.85;;
20468;SDS011;10393;52.460;13.322;2023-04-24T01:14:03;3.33;;;2.10;;
20468;SDS011;10393;52.460;13.322;2023-04-24T01:17:52;1.98;;;1.80;;
20468;SDS011;10393;52.460;13.322;2023-04-24T01:19:41;2.90;;;2.00;;
20468;SDS011;10393;52.460;13.322;2023-04-24T01:21:30;2.80;;;1.98;;
20468;SDS011;10393;52.460;13.322;2023-04-24T01:23:19;5.38;;;2.22;;
20468;SDS011;10393;52.460;13.322;2023-04-24T01:25:05;3.50;;;2.17;;
20468;SDS011;10393;52.460;13.322;2023-04-24T01:26:46;2.15;;;1.73;;
20468;SDS011;10393;52.460;13.322;2023-04-24T01:28:28;2.05;;;1.77;;
20468;SDS011;10393;52.460;13.322;2023-04-24T01:30:18;3.70;;;2.35;;
20468;SDS011;10393;52.460;13.322;2023-04-24T01:31:59;2.88;;;2.47;;
20468;SDS011;10393;52.460;13.322;2023-04-24T01:33:43;2.50;;;2.30;;
20468;SDS011;10393;52.460;13.322;2023-04-24T01:35:24;3.40;;;1.85;;
20468;SDS011;10393;52.460;13.322;2023-04-24T01:37:14;5.15;;;2.65;;
20468;SDS011;10393;52.460;13.322;2023-04-24T01:38:59;3.97;;;2.35;;
20468;SDS011;10393;52.460;13.322;2023-04-24T01:40:49;4.03;;;2.72;;
20468;SDS011;10393;52.460;13.322;2023-04-24T01:42:34;2.40;;;1.95;;
20468;SDS011;10393;52.460;13.322;2023-04-24T01:44:20;2.13;;;1.90;;
20468;SDS011;10393;52.460;13.322;2023-04-24T01:46:08;3.67;;;2.55;;
20468;SDS011;10393;52.460;13.322;2023-04-24T01:47:50;4.25;;;2.35;;
20468;SDS011;10393;52.460;13.322;2023-04-24T01:49:34;7.00;;;2.58;;
20468;SDS011;10393;52.460;13.322;2023-04-24T01:51:16;2.35;;;2.05;;
20468;SDS011;10393;52.460;13.322;2023-04-24T01:53:07;4.18;;;2.30;;
20468;SDS011;10393;52.460;13.322;2023-04-24T01:55:00;6.10;;;2.00;;
20468;SDS011;10393;52.460;13.322;2023-04-24T01:56:42;6.10;;;2.83;;
20468;SDS011;10393;52.460;13.322;2023-04-24T01:58:32;2.88;;;2.50;;
20468;SDS011;10393;52.460;13.322;2023-04-24T02:00:13;4.28;;;2.20;;
20468;SDS011;10393;52.460;13.322;2023-04-24T02:01:59;3.28;;;2.03;;
20468;SDS011;10393;52.460;13.322;2023-04-24T02:03:45;3.65;;;1.67;;
20468;SDS011;10393;52.460;13.322;2023-04-24T02:05:32;5.32;;;2.03;;
20468;SDS011;10393;52.460;13.322;2023-04-24T02:07:13;7.38;;;2.25;;
20468;SDS011;10393;52.460;13.322;2023-04-24T02:08:58;3.22;;;2.17;;
20468;SDS011;10393;52.460;13.322;2023-04-24T02:10:42;3.50;;;2.05;;
20468;SDS011;10393;52.460;13.322;2023-04-24T02:12:33;2.63;;;1.75;;
20468;SDS011;10393;52.460;13.322;2023-04-24T02:14:20;3.13;;;2.22;;
20468;SDS011;10393;52.460;13.322;2023-04-24T02:16:04;2.10;;;1.95;;
20468;SDS011;10393;52.460;13.322;2023-04-24T02:17:50;5.20;;;2.60;;
20468;SDS011;10393;52.460;13.322;2023-04-24T02:19:44;2.63;;;2.10;;
20468;SDS011;10393;52.460;13.322;2023-04-24T02:21:33;3.65;;;2.65;;
20468;SDS011;10393;52.460;13.322;2023-04-24T02:23:28;2.13;;;1.92;;
20468;SDS011;10393;52.460;13.322;2023-04-24T02:25:10;4.28;;;2.40;;
20468;SDS011;10393;52.460;13.322;2023-04-24T02:26:57;3.88;;;2.35;;
20468;SDS011;10393;52.460;13.322;2023-04-24T02:28:49;2.53;;;2.30;;
20468;SDS011;10393;52.460;13.322;2023-04-24T02:30:36;2.20;;;1.63;;
20468;SDS011;10393;52.460;13.322;2023-04-24T02:32:20;3.80;;;2.33;;
20468;SDS011;10393;52.460;13.322;2023-04-24T02:34:09;2.53;;;2.13;;
20468;SDS011;10393;52.460;13.322;2023-04-24T02:35:56;2.63;;;2.10;;
20468;SDS011;10393;52.460;13.322;2023-04-24T02:37:43;3.45;;;2.10;;
20468;SDS011;10393;52.460;13.322;2023-04-24T02:39:31;2.38;;;2.08;;
20468;SDS011;10393;52.460;13.322;2023-04-24T02:41:15;2.67;;;2.30;;
20468;SDS011;10393;52.460;13.322;2023-04-24T02:43:08;6.43;;;2.55;;
20468;SDS011;10393;52.460;13.322;2023-04-24T02:44:53;6.18;;;2.20;;
20468;SDS011;10393;52.460;13.322;2023-04-24T02:46:37;5.80;;;2.28;;
20468;SDS011;10393;52.460;13.322;2023-04-24T02:48:18;3.08;;;2.20;;
20468;SDS011;10393;52.460;13.322;2023-04-24T02:50:16;2.90;;;2.25;;
20468;SDS011;10393;52.460;13.322;2023-04-24T02:52:10;3.08;;;2.28;;
20468;SDS011;10393;52.460;13.322;2023-04-24T02:54:02;2.63;;;2.00;;
20468;SDS011;10393;52.460;13.322;2023-04-24T02:55:46;4.82;;;2.42;;
20468;SDS011;10393;52.460;13.322;2023-04-24T02:57:33;2.97;;;2.40;;
20468;SDS011;10393;52.460;13.322;2023-04-24T02:59:15;3.88;;;2.78;;
20468;SDS011;10393;52.460;13.322;2023-04-24T03:01:07;4.32;;;2.60;;
20468;SDS011;10393;52.460;13.322;2023-04-24T03:03:01;3.95;;;2.35;;
20468;SDS011;10393;52.460;13.322;2023-04-24T03:04:43;6.50;;;2.17;;
20468;SDS011;10393;52.460;13.322;2023-04-24T03:06:29;2.65;;;2.05;;
20468;SDS011;10393;52.460;13.322;2023-04-24T03:08:17;2.72;;;2.53;;
20468;SDS011;10393;52.460;13.322;2023-04-24T03:09:59;4.03;;;2.25;;
20468;SDS011;10393;52.460;13.322;2023-04-24T03:11:46;3.83;;;2.13;;
20468;SDS011;10393;52.460;13.322;2023-04-24T03:13:32;3.45;;;2.03;;
20468;SDS011;10393;52.460;13.322;2023-04-24T03:15:16;2.47;;;1.90;;
20468;SDS011;10393;52.460;13.322;2023-04-24T03:17:04;2.90;;;2.00;;
20468;SDS011;10393;52.460;13.322;2023-04-24T03:18:50;5.53;;;2.55;;
20468;SDS011;10393;52.460;13.322;2023-04-24T03:20:36;2.83;;;2.42;;
20468;SDS011;10393;52.460;13.322;2023-04-24T03:22:21;2.47;;;1.90;;
20468;SDS011;10393;52.460;13.322;2023-04-24T03:24:07;6.30;;;2.70;;
20468;SDS011;10393;52.460;13.322;2023-04-24T03:25:54;2.25;;;2.05;;
20468;SDS011;10393;52.460;13.322;2023-04-24T03:27:39;3.78;;;2.30;;
20468;SDS011;10393;52.460;13.322;2023-04-24T03:31:39;2.90;;;2.05;;
20468;SDS011;10393;52.460;13.322;2023-04-24T03:33:29;2.30;;;1.67;;
20468;SDS011;10393;52.460;13.322;2023-04-24T03:35:15;6.18;;;2.72;;
20468;SDS011;10393;52.460;13.322;2023-04-24T03:36:56;4.47;;;2.03;;
20468;SDS011;10393;52.460;13.322;2023-04-24T03:38:42;6.07;;;2.70;;
20468;SDS011;10393;52.460;13.322;2023-04-24T03:40:44;3.50;;;1.98;;
20468;SDS011;10393;52.460;13.322;2023-04-24T03:42:52;5.43;;;2.85;;
20468;SDS011;10393;52.460;13.322;2023-04-24T03:44:35;3.50;;;2.42;;
20468;SDS011;10393;52.460;13.322;2023-04-24T03:46:16;3.53;;;2.45;;
20468;SDS011;10393;52.460;13.322;2023-04-24T03:48:05;2.60;;;2.40;;
20468;SDS011;10393;52.460;13.322;2023-04-24T03:49:50;5.00;;;2.40;;
20468;SDS011;10393;52.460;13.322;2023-04-24T03:51:35;2.70;;;2.50;;
20468;SDS011;10393;52.460;13.322;2023-04-24T03:53:31;4.20;;;2.63;;
20468;SDS011;10393;52.460;13.322;2023-04-24T03:55:13;2.80;;;2.13;;
20468;SDS011;10393;52.460;13.322;2023-04-24T03:57:01;2.08;;;1.92;;
20468;SDS011;10393;52.460;13.322;2023-04-24T03:58:47;2.42;;;2.22;;
20468;SDS011;10393;52.460;13.322;2023-04-24T04:00:49;3.30;;;1.60;;
20468;SDS011;10393;52.460;13.322;2023-04-24T04:02:57;5.22;;;1.95;;
20468;SDS011;10393;52.460;13.322;2023-04-24T04:04:38;2.80;;;2.13;;
20468;SDS011;10393;52.460;13.322;2023-04-24T04:06:20;3.53;;;2.28;;
20468;SDS011;10393;52.460;13.322;2023-04-24T04:08:09;3.95;;;2.70;;
20468;SDS011;10393;52.460;13.322;2023-04-24T04:09:50;2.67;;;2.33;;
20468;SDS011;10393;52.460;13.322;2023-04-24T04:11:45;3.28;;;2.45;;
20468;SDS011;10393;52.460;13.322;2023-04-24T04:13:29;5.90;;;2.92;;
20468;SDS011;10393;52.460;13.322;2023-04-24T04:15:13;2.20;;;1.67;;
20468;SDS011;10393;52.460;13.322;2023-04-24T04:16:57;3.28;;;1.75;;
20468;SDS011;10393;52.460;13.322;2023-04-24T04:18:52;6.45;;;1.98;;
20468;SDS011;10393;52.460;13.322;2023-04-24T04:20:37;2.90;;;2.33;;
20468;SDS011;10393;52.460;13.322;2023-04-24T04:22:42;2.65;;;1.98;;
20468;SDS011;10393;52.460;13.322;2023-04-24T04:24:32;3.55;;;2.35;;
20468;SDS011;10393;52.460;13.322;2023-04-24T04:26:21;3.65;;;2.00;;
20468;SDS011;10393;52.460;13.322;2023-04-24T04:28:28;2.00;;;1.52;;
20468;SDS011;10393;52.460;13.322;2023-04-24T04:30:26;3.65;;;2.10;;
20468;SDS011;10393;52.460;13.322;2023-04-24T04:32:16;3.10;;;1.92;;
20468;SDS011;10393;52.460;13.322;2023-04-24T04:34:00;3.13;;;1.77;;
20468;SDS011;10393;52.460;13.322;2023-04-24T04:35:46;3.83;;;2.17;;
20468;SDS011;10393;52.460;13.322;2023-04-24T04:37:35;2.75;;;1.80;;
20468;SDS011;10393;52.460;13.322;2023-04-24T04:39:29;1.95;;;1.58;;
20468;SDS011;10393;52.460;13.322;2023-04-24T04:41:24;3.95;;;1.48;;
20468;SDS011;10393;52.460;13.322;2023-04-24T04:43:07;2.72;;;2.53;;
20468;SDS011;10393;52.460;13.322;2023-04-24T04:45:01;2.30;;;1.60;;
20468;SDS011;10393;52.460;13.322;2023-04-24T04:46:56;1.58;;;1.27;;
20468;SDS011;10393;52.460;13.322;2023-04-24T04:48:43;3.67;;;2.00;;
20468;SDS011;10393;52.460;13.322;2023-04-24T04:50:39;1.95;;;1.55;;
20468;SDS011;10393;52.460;13.322;2023-04-24T04:52:22;2.03;;;1.60;;
20468;SDS011;10393;52.460;13.322;2023-04-24T04:54:12;2.30;;;1.77;;
20468;SDS011;10393;52.460;13.322;2023-04-24T04:56:03;3.03;;;1.70;;
20468;SDS011;10393;52.460;13.322;2023-04-24T04:58:20;1.45;;;1.35;;
20468;SDS011;10393;52.460;13.322;2023-04-24T05:00:05;12.80;;;1.85;;
20468;SDS011;10393;52.460;13.322;2023-04-24T05:02:04;2.55;;;1.48;;
20468;SDS011;10393;52.460;13.322;2023-04-24T05:03:48;11.15;;;1.63;;
20468;SDS011;10393;52.460;13.322;2023-04-24T05:05:35;2.97;;;1.30;;
20468;SDS011;10393;52.460;13.322;2023-04-24T05:07:21;2.13;;;1.40;;
20468;SDS011;10393;52.460;13.322;2023-04-24T05:09:10;1.38;;;1.17;;
20468;SDS011;10393;52.460;13.322;2023-04-24T05:11:05;1.55;;;1.00;;
20468;SDS011;10393;52.460;13.322;2023-04-24T05:12:51;3.30;;;1.48;;
20468;SDS011;10393;52.460;13.322;2023-04-24T05:14:33;1.13;;;1.00;;
20468;SDS011;10393;52.460;13.322;2023-04-24T05:16:20;3.20;;;1.17;;
20468;SDS011;10393;52.460;13.322;2023-04-24T05:18:07;2.15;;;1.05;;
20468;SDS011;10393;52.460;13.322;2023-04-24T05:20:29;1.23;;;1.10;;
20468;SDS011;10393;52.460;13.322;2023-04-24T05:22:10;1.20;;;1.08;;
20468;SDS011;10393;52.460;13.322;2023-04-24T05:24:04;1.45;;;1.00;;
20468;SDS011;10393;52.460;13.322;2023-04-24T05:26:00;1.77;;;1.13;;
20468;SDS011;10393;52.460;13.322;2023-04-24T05:27:50;1.10;;;0.80;;
20468;SDS011;10393;52.460;13.322;2023-04-24T05:29:36;1.35;;;1.20;;
20468;SDS011;10393;52.460;13.322;2023-04-24T05:31:26;0.90;;;0.90;;
20468;SDS011;10393;52.460;13.322;2023-04-24T05:33:19;2.00;;;1.00;;
20468;SDS011;10393;52.460;13.322;2023-04-24T05:35:01;1.00;;;0.80;;
20468;SDS011;10393;52.460;13.322;2023-04-24T05:36:45;1.30;;;0.70;;
20468;SDS011;10393;52.460;13.322;2023-04-24T05:38:26;0.60;;;0.60;;
20468;SDS011;10393;52.460;13.322;2023-04-24T05:40:18;0.70;;;0.70;;
20468;SDS011;10393;52.460;13.322;2023-04-24T05:42:03;1.60;;;1.08;;
20468;SDS011;10393;52.460;13.322;2023-04-24T05:43:45;1.02;;;0.80;;
20468;SDS011;10393;52.460;13.322;2023-04-24T05:45:31;2.00;;;0.98;;
20468;SDS011;10393;52.460;13.322;2023-04-24T05:47:20;1.60;;;0.90;;
20468;SDS011;10393;52.460;13.322;2023-04-24T05:51:03;0.70;;;0.70;;
20468;SDS011;10393;52.460;13.322;2023-04-24T05:52:50;0.68;;;0.68;;
20468;SDS011;10393;52.460;13.322;2023-04-24T05:54:42;3.60;;;1.83;;
20468;SDS011;10393;52.460;13.322;2023-04-24T06:01:59;2.17;;;0.80;;
20468;SDS011;10393;52.460;13.322;2023-04-24T06:03:44;1.20;;;1.00;;
20468;SDS011;10393;52.460;13.322;2023-04-24T06:05:46;1.30;;;0.77;;
20468;SDS011;10393;52.460;13.322;2023-04-24T06:07:30;11.20;;;2.80;;
20468;SDS011;10393;52.460;13.322;2023-04-24T06:09:18;1.55;;;1.00;;
20468;SDS011;10393;52.460;13.322;2023-04-24T06:11:18;0.57;;;0.57;;
20468;SDS011;10393;52.460;13.322;2023-04-24T06:13:00;0.70;;;0.70;;
20468;SDS011;10393;52.460;13.322;2023-04-24T06:14:46;0.93;;;0.73;;
20468;SDS011;10393;52.460;13.322;2023-04-24T06:16:34;1.83;;;1.10;;
20468;SDS011;10393;52.460;13.322;2023-04-24T06:18:30;0.80;;;0.80;;
20468;SDS011;10393;52.460;13.322;2023-04-24T06:20:15;0.80;;;0.68;;
20468;SDS011;10393;52.460;13.322;2023-04-24T06:21:56;0.98;;;0.60;;
20468;SDS011;10393;52.460;13.322;2023-04-24T06:23:38;0.60;;;0.60;;
20468;SDS011;10393;52.460;13.322;2023-04-24T06:25:24;1.52;;;0.82;;
20468;SDS011;10393;52.460;13.322;2023-04-24T06:27:17;2.38;;;0.60;;
20468;SDS011;10393;52.460;13.322;2023-04-24T06:29:02;2.35;;;0.75;;
20468;SDS011;10393;52.460;13.322;2023-04-24T06:30:49;0.85;;;0.50;;
20468;SDS011;10393;52.460;13.322;2023-04-24T06:32:36;2.10;;;0.70;;
20468;SDS011;10393;52.460;13.322;2023-04-24T06:34:22;1.80;;;0.60;;
20468;SDS011;10393;52.460;13.322;2023-04-24T06:36:06;0.65;;;0.63;;
20468;SDS011;10393;52.460;13.322;2023-04-24T06:37:48;2.97;;;0.60;;
20468;SDS011;10393;52.460;13.322;2023-04-24T06:39:35;0.50;;;0.50;;
20468;SDS011;10393;52.460;13.322;2023-04-24T06:41:19;1.50;;;0.60;;
20468;SDS011;10393;52.460;13.322;2023-04-24T06:43:08;0.52;;;0.52;;
20468;SDS011;10393;52.460;13.322;2023-04-24T06:44:54;1.38;;;0.50;;
20468;SDS011;10393;52.460;13.322;2023-04-24T06:46:38;0.60;;;0.60;;
20468;SDS011;10393;52.460;13.322;2023-04-24T06:48:19;0.50;;;0.50;;
20468;SDS011;10393;52.460;13.322;2023-04-24T06:50:01;0.40;;;0.40;;
20468;SDS011;10393;52.460;13.322;2023-04-24T06:51:45;0.95;;;0.88;;
20468;SDS011;10393;52.460;13.322;2023-04-24T06:53:30;3.15;;;1.20;;
20468;SDS011;10393;52.460;13.322;2023-04-24T06:55:11;1.40;;;0.70;;
20468;SDS011;10393;52.460;13.322;2023-04-24T06:56:52;0.50;;;0.40;;
20468;SDS011;10393;52.460;13.322;2023-04-24T06:58:34;1.98;;;0.50;;
20468;SDS011;10393;52.460;13.322;2023-04-24T07:00:15;0.40;;;0.40;;
20468;SDS011;10393;52.460;13.322;2023-04-24T07:01:57;0.30;;;0.30;;
20468;SDS011;10393;52.460;13.322;2023-04-24T07:03:38;0.40;;;0.40;;
20468;SDS011;10393;52.460;13.322;2023-04-24T07:05:19;0.85;;;0.40;;
20468;SDS011;10393;52.460;13.322;2023-04-24T07:07:02;0.95;;;0.40;;
20468;SDS011;10393;52.460;13.322;2023-04-24T07:08:44;0.30;;;0.30;;
20468;SDS011;10393;52.460;13.322;2023-04-24T07:10:26;0.60;;;0.40;;
20468;SDS011;10393;52.460;13.322;2023-04-24T07:12:08;0.50;;;0.40;;
20468;SDS011;10393;52.460;13.322;2023-04-24T07:13:53;1.45;;;0.40;;
20468;SDS011;10393;52.460;13.322;2023-04-24T07:15:34;0.50;;;0.50;;
20468;SDS011;10393;52.460;13.322;2023-04-24T07:17:16;0.50;;;0.40;;
20468;SDS011;10393;52.460;13.322;2023-04-24T07:18:57;0.93;;;0.52;;
20468;SDS011;10393;52.460;13.322;2023-04-24T07:20:38;0.40;;;0.40;;
20468;SDS011;10393;52.460;13.322;2023-04-24T07:22:19;0.80;;;0.40;;
20468;SDS011;10393;52.460;13.322;2023-04-24T07:24:01;0.40;;;0.32;;
20468;SDS011;10393;52.460;13.322;2023-04-24T07:25:42;0.28;;;0.28;;
20468;SDS011;10393;52.460;13.322;2023-04-24T07:27:24;1.75;;;0.70;;
20468;SDS011;10393;52.460;13.322;2023-04-24T07:29:06;2.10;;;0.40;;
20468;SDS011;10393;52.460;13.322;2023-04-24T07:30:48;0.50;;;0.50;;
20468;SDS011;10393;52.460;13.322;2023-04-24T07:32:29;0.75;;;0.50;;
20468;SDS011;10393;52.460;13.322;2023-04-24T07:34:10;0.20;;;0.20;;
20468;SDS011;10393;52.460;13.322;2023-04-24T07:35:52;0.28;;;0.28;;
20468;SDS011;10393;52.460;13.322;2023-04-24T07:37:33;0.30;;;0.30;;
20468;SDS011;10393;52.460;13.322;2023-04-24T07:39:14;0.68;;;0.20;;
20468;SDS011;10393;52.460;13.322;2023-04-24T07:40:55;2.60;;;0.28;;
20468;SDS011;10393;52.460;13.322;2023-04-24T07:42:36;0.30;;;0.22;;
20468;SDS011;10393;52.460;13.322;2023-04-24T07:44:18;0.22;;;0.20;;
20468;SDS011;10393;52.460;13.322;2023-04-24T07:46:00;0.85;;;0.30;;
20468;SDS011;10393;52.460;13.322;2023-04-24T07:47:41;0.45;;;0.45;;
20468;SDS011;10393;52.460;13.322;2023-04-24T07:49:25;0.30;;;0.30;;
20468;SDS011;10393;52.460;13.322;2023-04-24T07:51:08;0.32;;;0.32;;
20468;SDS011;10393;52.460;13.322;2023-04-24T07:52:51;0.65;;;0.38;;
20468;SDS011;10393;52.460;13.322;2023-04-24T07:54:32;1.45;;;0.50;;
20468;SDS011;10393;52.460;13.322;2023-04-24T07:56:13;0.38;;;0.38;;
20468;SDS011;10393;52.460;13.322;2023-04-24T07:57:54;0.30;;;0.30;;
20468;SDS011;10393;52.460;13.322;2023-04-24T07:59:36;0.93;;;0.60;;
20468;SDS011;10393;52.460;13.322;2023-04-24T08:01:17;0.40;;;0.40;;
20468;SDS011;10393;52.460;13.322;2023-04-24T08:02:58;0.50;;;0.40;;
20468;SDS011;10393;52.460;13.322;2023-04-24T08:04:39;2.08;;;0.65;;
20468;SDS011;10393;52.460;13.322;2023-04-24T08:06:20;0.70;;;0.70;;
20468;SDS011;10393;52.460;13.322;2023-04-24T08:08:02;0.30;;;0.30;;
20468;SDS011;10393;52.460;13.322;2023-04-24T08:09:43;1.10;;;0.30;;
20468;SDS011;10393;52.460;13.322;2023-04-24T08:11:24;0.73;;;0.32;;
20468;SDS011;10393;52.460;13.322;2023-04-24T08:13:06;0.30;;;0.30;;
20468;SDS011;10393;52.460;13.322;2023-04-24T08:14:47;0.38;;;0.25;;
20468;SDS011;10393;52.460;13.322;2023-04-24T08:16:28;1.67;;;0.40;;
20468;SDS011;10393;52.460;13.322;2023-04-24T08:18:09;5.35;;;0.50;;
20468;SDS011;10393;52.460;13.322;2023-04-24T08:19:52;0.70;;;0.30;;
20468;SDS011;10393;52.460;13.322;2023-04-24T08:21:41;0.30;;;0.20;;
20468;SDS011;10393;52.460;13.322;2023-04-24T08:23:22;0.50;;;0.22;;
20468;SDS011;10393;52.460;13.322;2023-04-24T08:25:03;0.15;;;0.15;;
20468;SDS011;10393;52.460;13.322;2023-04-24T08:26:45;0.95;;;0.25;;
20468;SDS011;10393;52.460;13.322;2023-04-24T08:28:28;2.05;;;0.40;;
20468;SDS011;10393;52.460;13.322;2023-04-24T08:30:10;0.57;;;0.25;;
20468;SDS011;10393;52.460;13.322;2023-04-24T08:31:51;1.90;;;0.30;;
20468;SDS011;10393;52.460;13.322;2023-04-24T08:33:34;0.20;;;0.20;;
20468;SDS011;10393;52.460;13.322;2023-04-24T08:35:15;0.20;;;0.20;;
20468;SDS011;10393;52.460;13.322;2023-04-24T08:36:57;0.93;;;0.13;;
20468;SDS011;10393;52.460;13.322;2023-04-24T08:38:38;3.30;;;0.20;;
20468;SDS011;10393;52.460;13.322;2023-04-24T08:40:21;0.20;;;0.20;;
20468;SDS011;10393;52.460;13.322;2023-04-24T08:42:04;0.30;;;0.20;;
20468;SDS011;10393;52.460;13.322;2023-04-24T08:43:48;0.20;;;0.15;;
20468;SDS011;10393;52.460;13.322;2023-04-24T08:45:29;0.20;;;0.20;;
20468;SDS011;10393;52.460;13.322;2023-04-24T08:47:11;1.00;;;0.20;;
20468;SDS011;10393;52.460;13.322;2023-04-24T08:48:53;0.43;;;0.30;;
20468;SDS011;10393;52.460;13.322;2023-04-24T08:50:34;0.32;;;0.30;;
20468;SDS011;10393;52.460;13.322;2023-04-24T08:52:15;0.73;;;0.40;;
20468;SDS011;10393;52.460;13.322;2023-04-24T08:53:57;0.93;;;0.30;;
20468;SDS011;10393;52.460;13.322;2023-04-24T08:55:38;1.98;;;0.22;;
20468;SDS011;10393;52.460;13.322;2023-04-24T08:57:21;2.15;;;0.50;;
20468;SDS011;10393;52.460;13.322;2023-04-24T08:59:03;0.35;;;0.30;;
20468;SDS011;10393;52.460;13.322;2023-04-24T09:00:45;0.45;;;0.20;;
20468;SDS011;10393;52.460;13.322;2023-04-24T09:02:29;0.95;;;0.10;;
20468;SDS011;10393;52.460;13.322;2023-04-24T09:04:12;0.47;;;0.30;;
20468;SDS011;10393;52.460;13.322;2023-04-24T09:05:55;0.20;;;0.20;;
20468;SDS011;10393;52.460;13.322;2023-04-24T09:07:39;0.20;;;0.20;;
20468;SDS011;10393;52.460;13.322;2023-04-24T09:09:23;0.30;;;0.22;;
20468;SDS011;10393;52.460;13.322;2023-04-24T09:11:04;0.90;;;0.20;;
20468;SDS011;10393;52.460;13.322;2023-04-24T09:12:45;1.92;;;0.90;;
20468;SDS011;10393;52.460;13.322;2023-04-24T09:14:27;1.75;;;0.38;;
20468;SDS011;10393;52.460;13.322;2023-04-24T09:16:11;1.25;;;0.30;;
20468;SDS011;10393;52.460;13.322;2023-04-24T09:17:52;0.40;;;0.40;;
20468;SDS011;10393;52.460;13.322;2023-04-24T09:19:33;3.13;;;0.50;;
20468;SDS011;10393;52.460;13.322;2023-04-24T09:21:15;0.40;;;0.40;;
20468;SDS011;10393;52.460;13.322;2023-04-24T09:22:56;1.23;;;0.47;;
20468;SDS011;10393;52.460;13.322;2023-04-24T09:24:38;1.05;;;0.45;;
20468;SDS011;10393;52.460;13.322;2023-04-24T09:26:19;0.40;;;0.38;;
20468;SDS011;10393;52.460;13.322;2023-04-24T09:28:03;1.27;;;0.30;;
20468;SDS011;10393;52.460;13.322;2023-04-24T09:29:55;0.73;;;0.40;;
20468;SDS011;10393;52.460;13.322;2023-04-24T09:31:37;0.63;;;0.38;;
20468;SDS011;10393;52.460;13.322;2023-04-24T09:33:18;0.38;;;0.32;;
20468;SDS011;10393;52.460;13.322;2023-04-24T09:35:06;4.68;;;0.40;;
20468;SDS011;10393;52.460;13.322;2023-04-24T09:36:48;0.35;;;0.30;;
20468;SDS011;10393;52.460;13.322;2023-04-24T09:38:32;0.60;;;0.50;;
20468;SDS011;10393;52.460;13.322;2023-04-24T09:41:56;0.82;;;0.30;;
20468;SDS011;10393;52.460;13.322;2023-04-24T09:43:40;3.08;;;0.30;;
20468;SDS011;10393;52.460;13.322;2023-04-24T09:45:22;0.85;;;0.30;;
20468;SDS011;10393;52.460;13.322;2023-04-24T09:47:04;0.30;;;0.30;;
20468;SDS011;10393;52.460;13.322;2023-04-24T09:48:50;0.40;;;0.30;;
20468;SDS011;10393;52.460;13.322;2023-04-24T09:50:31;3.05;;;0.35;;
20468;SDS011;10393;52.460;13.322;2023-04-24T09:52:15;0.30;;;0.30;;
20468;SDS011;10393;52.460;13.322;2023-04-24T09:53:56;0.65;;;0.40;;
20468;SDS011;10393;52.460;13.322;2023-04-24T09:55:39;0.77;;;0.40;;
20468;SDS011;10393;52.460;13.322;2023-04-24T09:57:21;2.70;;;0.30;;
20468;SDS011;10393;52.460;13.322;2023-04-24T09:59:06;0.45;;;0.30;;
20468;SDS011;10393;52.460;13.322;2023-04-24T10:00:47;0.40;;;0.20;;
20468;SDS011;10393;52.460;13.322;2023-04-24T10:02:29;0.28;;;0.28;;
20468;SDS011;10393;52.460;13.322;2023-04-24T10:04:19;0.70;;;0.30;;
20468;SDS011;10393;52.460;13.322;2023-04-24T10:06:01;0.25;;;0.20;;
20468;SDS011;10393;52.460;13.322;2023-04-24T10:07:43;2.30;;;0.30;;
20468;SDS011;10393;52.460;13.322;2023-04-24T10:09:25;0.40;;;0.20;;
20468;SDS011;10393;52.460;13.322;2023-04-24T10:11:07;0.57;;;0.40;;
20468;SDS011;10393;52.460;13.322;2023-04-24T10:12:51;2.22;;;0.40;;
20468;SDS011;10393;52.460;13.322;2023-04-24T10:14:32;0.70;;;0.20;;
20468;SDS011;10393;52.460;13.322;2023-04-24T10:16:13;0.20;;;0.20;;
20468;SDS011;10393;52.460;13.322;2023-04-24T10:17:57;0.30;;;0.30;;
20468;SDS011;10393;52.460;13.322;2023-04-24T10:19:39;0.95;;;0.40;;
20468;SDS011;10393;52.460;13.322;2023-04-24T10:21:21;0.68;;;0.28;;
20468;SDS011;10393;52.460;13.322;2023-04-24T10:23:03;1.48;;;0.35;;
20468;SDS011;10393;52.460;13.322;2023-04-24T10:24:45;0.95;;;0.25;;
20468;SDS011;10393;52.460;13.322;2023-04-24T10:26:26;2.22;;;0.38;;
20468;SDS011;10393;52.460;13.322;2023-04-24T10:28:08;1.10;;;0.40;;
20468;SDS011;10393;52.460;13.322;2023-04-24T10:29:51;0.98;;;0.30;;
20468;SDS011;10393;52.460;13.322;2023-04-24T10:31:34;0.38;;;0.20;;
20468;SDS011;10393;52.460;13.322;2023-04-24T10:33:15;1.38;;;0.30;;
20468;SDS011;10393;52.460;13.322;2023-04-24T10:34:57;0.65;;;0.43;;
20468;SDS011;10393;52.460;13.322;2023-04-24T10:36:39;3.92;;;0.90;;
20468;SDS011;10393;52.460;13.322;2023-04-24T10:38:22;0.20;;;0.20;;
20468;SDS011;10393;52.460;13.322;2023-04-24T10:40:05;0.25;;;0.25;;